sensor_id;sensor_type;location;lat;lon;timestamp;P1;durP1;ratioP1;P2;durP2;ratioP2
3052;SDS011;1536;51.098;6.414;2023-12-14T00:01:35;28.33;;;17.55;;
3052;SDS011;1536;51.098;6.414;2023-12-14T00:04:02;33.50;;;19.80;;
3052;SDS011;1536;51.098;6.414;2023-12-14T00:06:30;27.95;;;18.50;;
3052;SDS011;1536;51.098;6.414;2023-12-14T00:08:58;28.88;;;18.15;;
3052;SDS011;1536;51.098;6.414;2023-12-14T00:11:25;30.83;;;19.60;;
3052;SDS011;1536;51.098;6.414;2023-12-14T00:13:52;33.28;;;19.17;;
3052;SDS011;1536;51.098;6.414;2023-12-14T00:16:18;30.15;;;18.98;;
3052;SDS011;1536;51.098;6.414;2023-12-14T00:18:47;32.78;;;22.65;;
3052;SDS011;1536;51.098;6.414;2023-12-14T00:21:14;37.50;;;22.08;;
3052;SDS011;1536;51.098;6.414;2023-12-14T00:23:41;42.50;;;21.17;;
3052;SDS011;1536;51.098;6.414;2023-12-14T00:26:09;29.30;;;19.95;;
3052;SDS011;1536;51.098;6.414;2023-12-14T00:28:35;37.20;;;21.60;;
3052;SDS011;1536;51.098;6.414;2023-12-14T00:31:02;38.15;;;22.98;;
3052;SDS011;1536;51.098;6.414;2023-12-14T00:33:29;31.60;;;20.40;;
3052;SDS011;1536;51.098;6.414;2023-12-14T00:35:56;37.92;;;22.10;;
3052;SDS011;1536;51.098;6.414;2023-12-14T00:38:23;41.72;;;21.25;;
3052;SDS011;1536;51.098;6.414;2023-12-14T00:40:49;34.03;;;19.98;;
3052;SDS011;1536;51.098;6.414;2023-12-14T00:43:17;31.08;;;19.73;;
3052;SDS011;1536;51.098;6.414;2023-12-14T00:45:44;28.02;;;19.08;;
3052;SDS011;1536;51.098;6.414;2023-12-14T00:48:11;35.83;;;21.38;;
3052;SDS011;1536;51.098;6.414;2023-12-14T00:50:38;30.85;;;20.20;;
3052;SDS011;1536;51.098;6.414;2023-12-14T00:53:05;33.05;;;20.35;;
3052;SDS011;1536;51.098;6.414;2023-12-14T00:55:32;35.50;;;19.08;;
3052;SDS011;1536;51.098;6.414;2023-12-14T00:57:58;35.35;;;20.10;;
3052;SDS011;1536;51.098;6.414;2023-12-14T01:00:26;29.98;;;18.88;;
3052;SDS011;1536;51.098;6.414;2023-12-14T01:02:54;29.08;;;18.70;;
3052;SDS011;1536;51.098;6.414;2023-12-14T01:05:20;36.13;;;20.98;;
3052;SDS011;1536;51.098;6.414;2023-12-14T01:07:47;27.98;;;17.63;;
3052;SDS011;1536;51.098;6.414;2023-12-14T01:10:14;31.05;;;18.98;;
3052;SDS011;1536;51.098;6.414;2023-12-14T01:12:41;31.15;;;19.67;;
3052;SDS011;1536;51.098;6.414;2023-12-14T01:15:08;29.27;;;18.42;;
3052;SDS011;1536;51.098;6.414;2023-12-14T01:17:36;25.77;;;15.05;;
3052;SDS011;1536;51.098;6.414;2023-12-14T01:20:04;21.65;;;14.10;;
3052;SDS011;1536;51.098;6.414;2023-12-14T01:22:32;19.48;;;13.05;;
3052;SDS011;1536;51.098;6.414;2023-12-14T01:24:59;16.45;;;10.38;;
3052;SDS011;1536;51.098;6.414;2023-12-14T01:27:26;11.95;;;8.85;;
3052;SDS011;1536;51.098;6.414;2023-12-14T01:29:52;11.88;;;8.32;;
3052;SDS011;1536;51.098;6.414;2023-12-14T01:32:19;15.30;;;10.10;;
3052;SDS011;1536;51.098;6.414;2023-12-14T01:34:47;14.65;;;8.90;;
3052;SDS011;1536;51.098;6.414;2023-12-14T01:37:14;14.90;;;9.75;;
3052;SDS011;1536;51.098;6.414;2023-12-14T01:39:41;14.02;;;8.90;;
3052;SDS011;1536;51.098;6.414;2023-12-14T01:42:07;15.10;;;9.35;;
3052;SDS011;1536;51.098;6.414;2023-12-14T01:44:34;12.10;;;8.10;;
3052;SDS011;1536;51.098;6.414;2023-12-14T01:47:01;13.18;;;9.73;;
3052;SDS011;1536;51.098;6.414;2023-12-14T01:49:28;15.27;;;8.65;;
3052;SDS011;1536;51.098;6.414;2023-12-14T01:51:56;16.77;;;9.70;;
3052;SDS011;1536;51.098;6.414;2023-12-14T01:54:22;15.80;;;10.20;;
3052;SDS011;1536;51.098;6.414;2023-12-14T01:56:49;15.93;;;9.35;;
3052;SDS011;1536;51.098;6.414;2023-12-14T01:59:16;17.17;;;11.43;;
3052;SDS011;1536;51.098;6.414;2023-12-14T02:01:43;22.02;;;12.93;;
3052;SDS011;1536;51.098;6.414;2023-12-14T02:04:10;18.42;;;11.57;;
3052;SDS011;1536;51.098;6.414;2023-12-14T02:06:38;21.08;;;12.40;;
3052;SDS011;1536;51.098;6.414;2023-12-14T02:09:06;23.08;;;14.75;;
3052;SDS011;1536;51.098;6.414;2023-12-14T02:11:33;21.02;;;13.75;;
3052;SDS011;1536;51.098;6.414;2023-12-14T02:14:02;18.95;;;12.55;;
3052;SDS011;1536;51.098;6.414;2023-12-14T02:16:30;24.50;;;14.27;;
3052;SDS011;1536;51.098;6.414;2023-12-14T02:18:57;19.92;;;13.20;;
3052;SDS011;1536;51.098;6.414;2023-12-14T02:21:24;18.20;;;12.30;;
3052;SDS011;1536;51.098;6.414;2023-12-14T02:23:52;17.17;;;10.93;;
3052;SDS011;1536;51.098;6.414;2023-12-14T02:26:19;16.52;;;10.50;;
3052;SDS011;1536;51.098;6.414;2023-12-14T02:28:45;17.27;;;10.48;;
3052;SDS011;1536;51.098;6.414;2023-12-14T02:31:12;19.83;;;12.48;;
3052;SDS011;1536;51.098;6.414;2023-12-14T02:33:39;19.92;;;12.63;;
3052;SDS011;1536;51.098;6.414;2023-12-14T02:36:06;21.58;;;12.13;;
3052;SDS011;1536;51.098;6.414;2023-12-14T02:38:33;21.65;;;11.75;;
3052;SDS011;1536;51.098;6.414;2023-12-14T02:41:01;25.15;;;13.38;;
3052;SDS011;1536;51.098;6.414;2023-12-14T02:43:28;22.38;;;13.63;;
3052;SDS011;1536;51.098;6.414;2023-12-14T02:45:54;19.52;;;13.43;;
3052;SDS011;1536;51.098;6.414;2023-12-14T02:48:27;27.10;;;15.40;;
3052;SDS011;1536;51.098;6.414;2023-12-14T02:50:54;29.10;;;17.08;;
3052;SDS011;1536;51.098;6.414;2023-12-14T02:53:21;27.83;;;16.13;;
3052;SDS011;1536;51.098;6.414;2023-12-14T02:55:47;32.35;;;17.83;;
3052;SDS011;1536;51.098;6.414;2023-12-14T02:58:15;30.30;;;17.73;;
3052;SDS011;1536;51.098;6.414;2023-12-14T03:00:44;32.45;;;18.67;;
3052;SDS011;1536;51.098;6.414;2023-12-14T03:03:11;30.95;;;17.70;;
3052;SDS011;1536;51.098;6.414;2023-12-14T03:05:38;31.38;;;18.60;;
3052;SDS011;1536;51.098;6.414;2023-12-14T03:08:05;33.47;;;17.33;;
3052;SDS011;1536;51.098;6.414;2023-12-14T03:10:31;30.05;;;17.50;;
3052;SDS011;1536;51.098;6.414;2023-12-14T03:12:58;35.15;;;20.42;;
3052;SDS011;1536;51.098;6.414;2023-12-14T03:15:26;29.63;;;16.95;;
3052;SDS011;1536;51.098;6.414;2023-12-14T03:17:53;31.83;;;18.80;;
3052;SDS011;1536;51.098;6.414;2023-12-14T03:20:20;33.10;;;18.85;;
3052;SDS011;1536;51.098;6.414;2023-12-14T03:22:46;35.53;;;20.63;;
3052;SDS011;1536;51.098;6.414;2023-12-14T03:25:13;32.97;;;19.90;;
3052;SDS011;1536;51.098;6.414;2023-12-14T03:27:40;28.35;;;18.75;;
3052;SDS011;1536;51.098;6.414;2023-12-14T03:30:07;30.35;;;19.30;;
3052;SDS011;1536;51.098;6.414;2023-12-14T03:32:36;30.65;;;19.13;;
3052;SDS011;1536;51.098;6.414;2023-12-14T03:35:03;30.05;;;18.58;;
3052;SDS011;1536;51.098;6.414;2023-12-14T03:37:31;28.63;;;18.10;;
3052;SDS011;1536;51.098;6.414;2023-12-14T03:39:58;29.35;;;18.63;;
3052;SDS011;1536;51.098;6.414;2023-12-14T03:42:24;30.92;;;18.75;;
3052;SDS011;1536;51.098;6.414;2023-12-14T03:44:51;29.75;;;19.15;;
3052;SDS011;1536;51.098;6.414;2023-12-14T03:47:18;30.30;;;19.73;;
3052;SDS011;1536;51.098;6.414;2023-12-14T03:49:46;33.90;;;20.40;;
3052;SDS011;1536;51.098;6.414;2023-12-14T03:52:14;36.50;;;19.77;;
3052;SDS011;1536;51.098;6.414;2023-12-14T03:54:41;29.73;;;19.38;;
3052;SDS011;1536;51.098;6.414;2023-12-14T03:57:07;33.63;;;18.55;;
3052;SDS011;1536;51.098;6.414;2023-12-14T03:59:37;32.40;;;19.67;;
3052;SDS011;1536;51.098;6.414;2023-12-14T04:02:05;35.35;;;20.38;;
3052;SDS011;1536;51.098;6.414;2023-12-14T04:04:32;33.35;;;18.70;;
3052;SDS011;1536;51.098;6.414;2023-12-14T04:07:00;37.40;;;21.00;;
3052;SDS011;1536;51.098;6.414;2023-12-14T04:09:26;30.38;;;19.33;;
3052;SDS011;1536;51.098;6.414;2023-12-14T04:11:53;32.38;;;19.50;;
3052;SDS011;1536;51.098;6.414;2023-12-14T04:14:20;31.58;;;19.15;;
3052;SDS011;1536;51.098;6.414;2023-12-14T04:16:46;32.40;;;20.23;;
3052;SDS011;1536;51.098;6.414;2023-12-14T04:19:13;30.95;;;21.10;;
3052;SDS011;1536;51.098;6.414;2023-12-14T04:21:40;30.38;;;19.50;;
3052;SDS011;1536;51.098;6.414;2023-12-14T04:24:08;33.63;;;20.85;;
3052;SDS011;1536;51.098;6.414;2023-12-14T04:26:37;33.33;;;20.00;;
3052;SDS011;1536;51.098;6.414;2023-12-14T04:29:04;34.67;;;19.70;;
3052;SDS011;1536;51.098;6.414;2023-12-14T04:31:31;35.50;;;21.50;;
3052;SDS011;1536;51.098;6.414;2023-12-14T04:33:58;32.47;;;20.27;;
3052;SDS011;1536;51.098;6.414;2023-12-14T04:36:25;33.33;;;19.80;;
3052;SDS011;1536;51.098;6.414;2023-12-14T04:38:52;32.42;;;21.05;;
3052;SDS011;1536;51.098;6.414;2023-12-14T04:41:20;33.63;;;20.65;;
3052;SDS011;1536;51.098;6.414;2023-12-14T04:43:47;33.08;;;22.25;;
3052;SDS011;1536;51.098;6.414;2023-12-14T04:46:15;34.80;;;21.05;;
3052;SDS011;1536;51.098;6.414;2023-12-14T04:48:41;33.50;;;20.05;;
3052;SDS011;1536;51.098;6.414;2023-12-14T04:51:10;34.78;;;20.73;;
3052;SDS011;1536;51.098;6.414;2023-12-14T04:53:37;39.65;;;22.30;;
3052;SDS011;1536;51.098;6.414;2023-12-14T04:56:04;35.58;;;19.00;;
3052;SDS011;1536;51.098;6.414;2023-12-14T04:58:36;40.88;;;21.33;;
3052;SDS011;1536;51.098;6.414;2023-12-14T05:01:03;29.23;;;17.50;;
3052;SDS011;1536;51.098;6.414;2023-12-14T05:03:31;28.90;;;16.67;;
3052;SDS011;1536;51.098;6.414;2023-12-14T05:05:58;24.58;;;16.70;;
3052;SDS011;1536;51.098;6.414;2023-12-14T05:08:24;26.40;;;16.05;;
3052;SDS011;1536;51.098;6.414;2023-12-14T05:10:51;23.05;;;15.07;;
3052;SDS011;1536;51.098;6.414;2023-12-14T05:13:18;24.13;;;15.07;;
3052;SDS011;1536;51.098;6.414;2023-12-14T05:15:46;28.58;;;16.00;;
3052;SDS011;1536;51.098;6.414;2023-12-14T05:18:13;27.15;;;14.85;;
3052;SDS011;1536;51.098;6.414;2023-12-14T05:20:39;24.60;;;16.23;;
3052;SDS011;1536;51.098;6.414;2023-12-14T05:23:06;26.27;;;15.43;;
3052;SDS011;1536;51.098;6.414;2023-12-14T05:25:33;22.15;;;14.68;;
3052;SDS011;1536;51.098;6.414;2023-12-14T05:28:00;33.83;;;16.40;;
3052;SDS011;1536;51.098;6.414;2023-12-14T05:30:27;26.70;;;17.83;;
3052;SDS011;1536;51.098;6.414;2023-12-14T05:32:55;28.00;;;15.35;;
3052;SDS011;1536;51.098;6.414;2023-12-14T05:35:22;30.10;;;17.27;;
3052;SDS011;1536;51.098;6.414;2023-12-14T05:37:49;32.28;;;16.88;;
3052;SDS011;1536;51.098;6.414;2023-12-14T05:40:16;25.42;;;16.23;;
3052;SDS011;1536;51.098;6.414;2023-12-14T05:42:42;27.65;;;16.40;;
3052;SDS011;1536;51.098;6.414;2023-12-14T05:45:08;29.57;;;17.13;;
3052;SDS011;1536;51.098;6.414;2023-12-14T05:47:36;28.83;;;18.40;;
3052;SDS011;1536;51.098;6.414;2023-12-14T05:50:05;30.38;;;18.48;;
3052;SDS011;1536;51.098;6.414;2023-12-14T05:52:34;25.45;;;16.70;;
3052;SDS011;1536;51.098;6.414;2023-12-14T05:55:01;26.42;;;15.60;;
3052;SDS011;1536;51.098;6.414;2023-12-14T05:57:28;26.85;;;16.40;;
3052;SDS011;1536;51.098;6.414;2023-12-14T05:59:54;27.75;;;17.58;;
3052;SDS011;1536;51.098;6.414;2023-12-14T06:02:22;32.58;;;17.95;;
3052;SDS011;1536;51.098;6.414;2023-12-14T06:04:48;31.45;;;17.80;;
3052;SDS011;1536;51.098;6.414;2023-12-14T06:07:17;29.23;;;19.00;;
3052;SDS011;1536;51.098;6.414;2023-12-14T06:09:43;29.42;;;18.73;;
3052;SDS011;1536;51.098;6.414;2023-12-14T06:12:10;36.25;;;18.02;;
3052;SDS011;1536;51.098;6.414;2023-12-14T06:14:38;27.90;;;17.27;;
3052;SDS011;1536;51.098;6.414;2023-12-14T06:17:05;32.92;;;17.38;;
3052;SDS011;1536;51.098;6.414;2023-12-14T06:19:31;30.63;;;17.73;;
3052;SDS011;1536;51.098;6.414;2023-12-14T06:21:58;28.38;;;15.85;;
3052;SDS011;1536;51.098;6.414;2023-12-14T06:24:26;33.58;;;16.92;;
3052;SDS011;1536;51.098;6.414;2023-12-14T06:26:53;29.88;;;16.75;;
3052;SDS011;1536;51.098;6.414;2023-12-14T06:29:19;27.63;;;16.08;;
3052;SDS011;1536;51.098;6.414;2023-12-14T06:31:46;27.98;;;16.75;;
3052;SDS011;1536;51.098;6.414;2023-12-14T06:34:13;33.83;;;16.80;;
3052;SDS011;1536;51.098;6.414;2023-12-14T06:36:41;28.75;;;15.50;;
3052;SDS011;1536;51.098;6.414;2023-12-14T06:39:08;31.30;;;17.35;;
3052;SDS011;1536;51.098;6.414;2023-12-14T06:41:37;27.67;;;16.02;;
3052;SDS011;1536;51.098;6.414;2023-12-14T06:44:04;29.67;;;18.63;;
3052;SDS011;1536;51.098;6.414;2023-12-14T06:46:31;24.52;;;15.35;;
3052;SDS011;1536;51.098;6.414;2023-12-14T06:48:57;25.88;;;17.00;;
3052;SDS011;1536;51.098;6.414;2023-12-14T06:51:24;28.83;;;16.55;;
3052;SDS011;1536;51.098;6.414;2023-12-14T06:53:51;32.78;;;16.85;;
3052;SDS011;1536;51.098;6.414;2023-12-14T06:56:18;32.05;;;17.27;;
3052;SDS011;1536;51.098;6.414;2023-12-14T06:58:46;28.95;;;19.45;;
3052;SDS011;1536;51.098;6.414;2023-12-14T07:01:15;35.47;;;17.70;;
3052;SDS011;1536;51.098;6.414;2023-12-14T07:03:42;29.77;;;17.48;;
3052;SDS011;1536;51.098;6.414;2023-12-14T07:06:11;28.20;;;17.70;;
3052;SDS011;1536;51.098;6.414;2023-12-14T07:08:38;26.77;;;17.27;;
3052;SDS011;1536;51.098;6.414;2023-12-14T07:11:05;27.38;;;18.90;;
3052;SDS011;1536;51.098;6.414;2023-12-14T07:13:32;27.25;;;18.33;;
3052;SDS011;1536;51.098;6.414;2023-12-14T07:16:02;28.05;;;16.55;;
3052;SDS011;1536;51.098;6.414;2023-12-14T07:18:30;31.73;;;19.25;;
3052;SDS011;1536;51.098;6.414;2023-12-14T07:20:56;27.85;;;18.63;;
3052;SDS011;1536;51.098;6.414;2023-12-14T07:23:23;24.92;;;16.52;;
3052;SDS011;1536;51.098;6.414;2023-12-14T07:25:50;30.88;;;17.55;;
3052;SDS011;1536;51.098;6.414;2023-12-14T07:28:16;28.33;;;18.77;;
3052;SDS011;1536;51.098;6.414;2023-12-14T07:30:44;30.38;;;18.77;;
3052;SDS011;1536;51.098;6.414;2023-12-14T07:33:12;31.08;;;18.42;;
3052;SDS011;1536;51.098;6.414;2023-12-14T07:35:39;26.85;;;18.33;;
3052;SDS011;1536;51.098;6.414;2023-12-14T07:38:06;28.23;;;17.27;;
3052;SDS011;1536;51.098;6.414;2023-12-14T07:40:33;28.42;;;17.80;;
3052;SDS011;1536;51.098;6.414;2023-12-14T07:43:00;30.55;;;18.67;;
3052;SDS011;1536;51.098;6.414;2023-12-14T07:45:27;30.75;;;18.15;;
3052;SDS011;1536;51.098;6.414;2023-12-14T07:47:54;34.65;;;17.20;;
3052;SDS011;1536;51.098;6.414;2023-12-14T07:50:22;27.75;;;18.20;;
3052;SDS011;1536;51.098;6.414;2023-12-14T07:52:49;25.88;;;17.08;;
3052;SDS011;1536;51.098;6.414;2023-12-14T07:55:15;30.30;;;17.70;;
3052;SDS011;1536;51.098;6.414;2023-12-14T07:57:43;25.00;;;18.00;;
3052;SDS011;1536;51.098;6.414;2023-12-14T08:00:10;26.25;;;15.85;;
3052;SDS011;1536;51.098;6.414;2023-12-14T08:02:37;25.55;;;16.20;;
3052;SDS011;1536;51.098;6.414;2023-12-14T08:05:04;26.55;;;16.90;;
3052;SDS011;1536;51.098;6.414;2023-12-14T08:07:33;26.80;;;16.67;;
3052;SDS011;1536;51.098;6.414;2023-12-14T08:10:00;26.92;;;16.00;;
3052;SDS011;1536;51.098;6.414;2023-12-14T08:12:27;24.13;;;16.45;;
3052;SDS011;1536;51.098;6.414;2023-12-14T08:14:53;24.92;;;16.02;;
3052;SDS011;1536;51.098;6.414;2023-12-14T08:17:20;24.27;;;17.38;;
3052;SDS011;1536;51.098;6.414;2023-12-14T08:19:47;24.52;;;16.90;;
3052;SDS011;1536;51.098;6.414;2023-12-14T08:22:14;26.05;;;17.65;;
3052;SDS011;1536;51.098;6.414;2023-12-14T08:24:42;23.48;;;16.85;;
3052;SDS011;1536;51.098;6.414;2023-12-14T08:27:08;23.98;;;16.30;;
3052;SDS011;1536;51.098;6.414;2023-12-14T08:29:35;26.40;;;17.38;;
3052;SDS011;1536;51.098;6.414;2023-12-14T08:32:02;24.23;;;16.67;;
3052;SDS011;1536;51.098;6.414;2023-12-14T08:34:29;21.95;;;15.88;;
3052;SDS011;1536;51.098;6.414;2023-12-14T08:36:56;25.10;;;15.85;;
3052;SDS011;1536;51.098;6.414;2023-12-14T08:39:23;22.67;;;14.88;;
3052;SDS011;1536;51.098;6.414;2023-12-14T08:41:51;21.20;;;15.90;;
3052;SDS011;1536;51.098;6.414;2023-12-14T08:44:18;20.85;;;15.43;;
3052;SDS011;1536;51.098;6.414;2023-12-14T08:46:45;22.42;;;15.63;;
3052;SDS011;1536;51.098;6.414;2023-12-14T08:49:13;21.73;;;15.02;;
3052;SDS011;1536;51.098;6.414;2023-12-14T08:51:41;22.00;;;14.27;;
3052;SDS011;1536;51.098;6.414;2023-12-14T08:54:08;20.85;;;15.55;;
3052;SDS011;1536;51.098;6.414;2023-12-14T08:56:35;21.23;;;15.38;;
3052;SDS011;1536;51.098;6.414;2023-12-14T08:59:03;25.65;;;16.63;;
3052;SDS011;1536;51.098;6.414;2023-12-14T09:01:29;24.92;;;15.93;;
3052;SDS011;1536;51.098;6.414;2023-12-14T09:03:56;22.77;;;16.33;;
3052;SDS011;1536;51.098;6.414;2023-12-14T09:06:23;24.15;;;16.05;;
3052;SDS011;1536;51.098;6.414;2023-12-14T09:08:50;26.55;;;18.25;;
3052;SDS011;1536;51.098;6.414;2023-12-14T09:11:16;26.98;;;16.85;;
3052;SDS011;1536;51.098;6.414;2023-12-14T09:13:44;26.52;;;16.23;;
3052;SDS011;1536;51.098;6.414;2023-12-14T09:16:12;23.15;;;16.08;;
3052;SDS011;1536;51.098;6.414;2023-12-14T09:18:38;20.83;;;15.38;;
3052;SDS011;1536;51.098;6.414;2023-12-14T09:21:05;24.27;;;16.35;;
3052;SDS011;1536;51.098;6.414;2023-12-14T09:23:32;24.27;;;16.38;;
3052;SDS011;1536;51.098;6.414;2023-12-14T09:25:59;22.70;;;15.50;;
3052;SDS011;1536;51.098;6.414;2023-12-14T09:28:26;22.80;;;15.75;;
3052;SDS011;1536;51.098;6.414;2023-12-14T09:30:52;20.50;;;15.20;;
3052;SDS011;1536;51.098;6.414;2023-12-14T09:33:21;22.17;;;15.60;;
3052;SDS011;1536;51.098;6.414;2023-12-14T09:35:47;23.27;;;16.85;;
3052;SDS011;1536;51.098;6.414;2023-12-14T09:38:14;23.67;;;16.33;;
3052;SDS011;1536;51.098;6.414;2023-12-14T09:40:42;22.92;;;16.48;;
3052;SDS011;1536;51.098;6.414;2023-12-14T09:43:10;25.08;;;14.32;;
3052;SDS011;1536;51.098;6.414;2023-12-14T09:45:37;23.10;;;16.25;;
3052;SDS011;1536;51.098;6.414;2023-12-14T09:48:10;23.88;;;14.95;;
3052;SDS011;1536;51.098;6.414;2023-12-14T09:50:40;21.83;;;15.35;;
3052;SDS011;1536;51.098;6.414;2023-12-14T09:53:07;22.35;;;15.63;;
3052;SDS011;1536;51.098;6.414;2023-12-14T09:55:34;26.67;;;15.85;;
3052;SDS011;1536;51.098;6.414;2023-12-14T09:58:00;19.80;;;15.25;;
3052;SDS011;1536;51.098;6.414;2023-12-14T10:00:34;20.25;;;15.55;;
3052;SDS011;1536;51.098;6.414;2023-12-14T10:03:21;19.42;;;14.27;;
3052;SDS011;1536;51.098;6.414;2023-12-14T10:05:50;21.85;;;15.00;;
3052;SDS011;1536;51.098;6.414;2023-12-14T10:08:17;21.08;;;16.23;;
3052;SDS011;1536;51.098;6.414;2023-12-14T10:10:45;67.15;;;19.00;;
3052;SDS011;1536;51.098;6.414;2023-12-14T10:16:26;20.88;;;15.32;;
3052;SDS011;1536;51.098;6.414;2023-12-14T10:18:55;20.70;;;15.50;;
3052;SDS011;1536;51.098;6.414;2023-12-14T10:21:23;22.83;;;16.10;;
3052;SDS011;1536;51.098;6.414;2023-12-14T10:23:50;23.35;;;15.45;;
3052;SDS011;1536;51.098;6.414;2023-12-14T10:26:17;23.73;;;15.40;;
3052;SDS011;1536;51.098;6.414;2023-12-14T10:28:44;21.17;;;15.68;;
3052;SDS011;1536;51.098;6.414;2023-12-14T10:31:10;25.23;;;17.20;;
3052;SDS011;1536;51.098;6.414;2023-12-14T10:33:37;19.02;;;16.02;;
3052;SDS011;1536;51.098;6.414;2023-12-14T10:36:05;24.95;;;14.45;;
3052;SDS011;1536;51.098;6.414;2023-12-14T10:38:35;19.95;;;14.45;;
3052;SDS011;1536;51.098;6.414;2023-12-14T10:41:04;19.27;;;14.93;;
3052;SDS011;1536;51.098;6.414;2023-12-14T10:43:32;21.90;;;15.55;;
3052;SDS011;1536;51.098;6.414;2023-12-14T10:46:01;20.02;;;14.75;;
3052;SDS011;1536;51.098;6.414;2023-12-14T10:48:31;19.42;;;14.98;;
3052;SDS011;1536;51.098;6.414;2023-12-14T10:51:00;22.80;;;17.02;;
3052;SDS011;1536;51.098;6.414;2023-12-14T10:53:28;24.13;;;16.55;;
3052;SDS011;1536;51.098;6.414;2023-12-14T10:55:56;26.02;;;18.05;;
3052;SDS011;1536;51.098;6.414;2023-12-14T10:58:25;22.90;;;16.73;;
3052;SDS011;1536;51.098;6.414;2023-12-14T11:01:00;20.80;;;15.00;;
3052;SDS011;1536;51.098;6.414;2023-12-14T11:03:30;23.50;;;16.00;;
3052;SDS011;1536;51.098;6.414;2023-12-14T11:05:59;23.25;;;16.75;;
3052;SDS011;1536;51.098;6.414;2023-12-14T11:08:26;26.63;;;17.40;;
3052;SDS011;1536;51.098;6.414;2023-12-14T11:10:53;23.20;;;14.98;;
3052;SDS011;1536;51.098;6.414;2023-12-14T11:13:22;20.75;;;14.95;;
3052;SDS011;1536;51.098;6.414;2023-12-14T11:15:50;20.98;;;13.82;;
3052;SDS011;1536;51.098;6.414;2023-12-14T11:18:21;20.98;;;14.45;;
3052;SDS011;1536;51.098;6.414;2023-12-14T11:20:50;18.02;;;13.63;;
3052;SDS011;1536;51.098;6.414;2023-12-14T11:23:22;19.38;;;14.05;;
3052;SDS011;1536;51.098;6.414;2023-12-14T11:25:57;18.27;;;13.05;;
3052;SDS011;1536;51.098;6.414;2023-12-14T11:28:29;16.95;;;12.93;;
3052;SDS011;1536;51.098;6.414;2023-12-14T11:30:56;17.30;;;12.90;;
3052;SDS011;1536;51.098;6.414;2023-12-14T11:33:23;19.65;;;13.38;;
3052;SDS011;1536;51.098;6.414;2023-12-14T11:35:52;14.90;;;11.73;;
3052;SDS011;1536;51.098;6.414;2023-12-14T11:38:19;17.80;;;12.30;;
3052;SDS011;1536;51.098;6.414;2023-12-14T11:40:46;16.90;;;11.55;;
3052;SDS011;1536;51.098;6.414;2023-12-14T11:43:14;16.02;;;11.57;;
3052;SDS011;1536;51.098;6.414;2023-12-14T11:45:42;17.80;;;12.43;;
3052;SDS011;1536;51.098;6.414;2023-12-14T11:48:11;16.88;;;12.73;;
3052;SDS011;1536;51.098;6.414;2023-12-14T11:50:38;15.75;;;11.93;;
3052;SDS011;1536;51.098;6.414;2023-12-14T11:53:06;18.35;;;12.88;;
3052;SDS011;1536;51.098;6.414;2023-12-14T11:55:34;18.70;;;13.30;;
3052;SDS011;1536;51.098;6.414;2023-12-14T11:58:02;16.55;;;12.75;;
3052;SDS011;1536;51.098;6.414;2023-12-14T12:00:30;22.83;;;13.60;;
3052;SDS011;1536;51.098;6.414;2023-12-14T12:03:09;14.95;;;12.98;;
3052;SDS011;1536;51.098;6.414;2023-12-14T12:05:37;17.58;;;12.57;;
3052;SDS011;1536;51.098;6.414;2023-12-14T12:08:05;14.60;;;11.05;;
3052;SDS011;1536;51.098;6.414;2023-12-14T12:10:32;15.80;;;11.60;;
3052;SDS011;1536;51.098;6.414;2023-12-14T12:13:00;15.30;;;11.50;;
3052;SDS011;1536;51.098;6.414;2023-12-14T12:15:29;14.73;;;11.27;;
3052;SDS011;1536;51.098;6.414;2023-12-14T12:17:58;15.75;;;11.77;;
3052;SDS011;1536;51.098;6.414;2023-12-14T12:20:26;17.80;;;11.98;;
3052;SDS011;1536;51.098;6.414;2023-12-14T12:22:53;15.77;;;11.23;;
3052;SDS011;1536;51.098;6.414;2023-12-14T12:25:20;14.40;;;9.73;;
3052;SDS011;1536;51.098;6.414;2023-12-14T12:27:48;12.90;;;9.95;;
3052;SDS011;1536;51.098;6.414;2023-12-14T12:30:15;15.75;;;10.43;;
3052;SDS011;1536;51.098;6.414;2023-12-14T12:32:41;13.48;;;10.23;;
3052;SDS011;1536;51.098;6.414;2023-12-14T12:35:08;17.40;;;10.48;;
3052;SDS011;1536;51.098;6.414;2023-12-14T12:37:36;13.20;;;9.20;;
3052;SDS011;1536;51.098;6.414;2023-12-14T12:40:04;14.07;;;9.95;;
3052;SDS011;1536;51.098;6.414;2023-12-14T12:42:32;18.65;;;10.77;;
3052;SDS011;1536;51.098;6.414;2023-12-14T12:44:59;15.98;;;11.38;;
3052;SDS011;1536;51.098;6.414;2023-12-14T12:47:31;20.05;;;11.35;;
3052;SDS011;1536;51.098;6.414;2023-12-14T12:49:58;13.00;;;9.30;;
3052;SDS011;1536;51.098;6.414;2023-12-14T12:52:25;13.95;;;10.35;;
3052;SDS011;1536;51.098;6.414;2023-12-14T12:54:53;14.27;;;10.75;;
3052;SDS011;1536;51.098;6.414;2023-12-14T12:57:20;14.27;;;9.68;;
3052;SDS011;1536;51.098;6.414;2023-12-14T12:59:47;13.80;;;9.23;;
3052;SDS011;1536;51.098;6.414;2023-12-14T13:02:13;17.60;;;12.10;;
3052;SDS011;1536;51.098;6.414;2023-12-14T13:04:40;12.45;;;9.90;;
3052;SDS011;1536;51.098;6.414;2023-12-14T13:07:07;18.02;;;10.18;;
3052;SDS011;1536;51.098;6.414;2023-12-14T13:09:34;15.07;;;10.63;;
3052;SDS011;1536;51.098;6.414;2023-12-14T13:12:02;18.20;;;11.70;;
3052;SDS011;1536;51.098;6.414;2023-12-14T13:14:29;15.95;;;10.38;;
3052;SDS011;1536;51.098;6.414;2023-12-14T13:16:56;23.88;;;11.18;;
3052;SDS011;1536;51.098;6.414;2023-12-14T13:19:24;15.90;;;10.48;;
3052;SDS011;1536;51.098;6.414;2023-12-14T13:21:51;15.15;;;10.95;;
3052;SDS011;1536;51.098;6.414;2023-12-14T13:24:18;13.93;;;10.45;;
3052;SDS011;1536;51.098;6.414;2023-12-14T13:26:44;15.20;;;11.80;;
3052;SDS011;1536;51.098;6.414;2023-12-14T13:29:12;13.43;;;9.52;;
3052;SDS011;1536;51.098;6.414;2023-12-14T13:31:39;18.40;;;12.05;;
3052;SDS011;1536;51.098;6.414;2023-12-14T13:34:06;16.38;;;10.75;;
3052;SDS011;1536;51.098;6.414;2023-12-14T13:36:33;15.25;;;11.25;;
3052;SDS011;1536;51.098;6.414;2023-12-14T13:39:01;14.88;;;11.35;;
3052;SDS011;1536;51.098;6.414;2023-12-14T13:41:28;15.10;;;11.02;;
3052;SDS011;1536;51.098;6.414;2023-12-14T13:43:58;12.77;;;10.10;;
3052;SDS011;1536;51.098;6.414;2023-12-14T13:46:27;13.20;;;9.40;;
3052;SDS011;1536;51.098;6.414;2023-12-14T13:48:53;14.68;;;11.80;;
3052;SDS011;1536;51.098;6.414;2023-12-14T13:51:20;14.15;;;10.50;;
3052;SDS011;1536;51.098;6.414;2023-12-14T13:53:47;14.02;;;9.52;;
3052;SDS011;1536;51.098;6.414;2023-12-14T13:56:14;14.57;;;10.68;;
3052;SDS011;1536;51.098;6.414;2023-12-14T13:58:40;13.10;;;10.68;;
3052;SDS011;1536;51.098;6.414;2023-12-14T14:01:07;14.38;;;9.98;;
3052;SDS011;1536;51.098;6.414;2023-12-14T14:03:35;13.30;;;10.00;;
3052;SDS011;1536;51.098;6.414;2023-12-14T14:06:03;15.23;;;9.85;;
3052;SDS011;1536;51.098;6.414;2023-12-14T14:08:30;14.23;;;11.27;;
3052;SDS011;1536;51.098;6.414;2023-12-14T14:10:57;20.85;;;10.98;;
3052;SDS011;1536;51.098;6.414;2023-12-14T14:13:24;12.68;;;9.68;;
3052;SDS011;1536;51.098;6.414;2023-12-14T14:15:51;18.20;;;11.38;;
3052;SDS011;1536;51.098;6.414;2023-12-14T14:18:18;14.43;;;9.70;;
3052;SDS011;1536;51.098;6.414;2023-12-14T14:20:46;14.95;;;10.43;;
3052;SDS011;1536;51.098;6.414;2023-12-14T14:23:13;15.82;;;11.35;;
3052;SDS011;1536;51.098;6.414;2023-12-14T14:25:40;16.90;;;11.73;;
3052;SDS011;1536;51.098;6.414;2023-12-14T14:28:06;17.02;;;10.75;;
3052;SDS011;1536;51.098;6.414;2023-12-14T14:30:33;17.70;;;12.00;;
3052;SDS011;1536;51.098;6.414;2023-12-14T14:33:00;16.63;;;11.65;;
3052;SDS011;1536;51.098;6.414;2023-12-14T14:35:27;18.27;;;12.23;;
3052;SDS011;1536;51.098;6.414;2023-12-14T14:37:56;14.80;;;11.48;;
3052;SDS011;1536;51.098;6.414;2023-12-14T14:40:22;17.73;;;11.35;;
3052;SDS011;1536;51.098;6.414;2023-12-14T14:42:49;16.65;;;12.07;;
3052;SDS011;1536;51.098;6.414;2023-12-14T14:45:16;16.95;;;11.30;;
3052;SDS011;1536;51.098;6.414;2023-12-14T14:47:43;15.02;;;10.93;;
3052;SDS011;1536;51.098;6.414;2023-12-14T14:50:10;17.05;;;11.77;;
3052;SDS011;1536;51.098;6.414;2023-12-14T14:52:36;15.98;;;11.00;;